Time;durP1;ratioP1;P1;durP2;ratioP2;P2;SDS_P1;SDS_P2;PMS_P1;PMS_P2;Temp;Humidity;BMP_temperature;BMP_pressure;BME280_temperature;BME280_humidity;BME280_pressure;Samples;Min_cycle;Max_cycle;Signal;HPM_P1;HPM_P2
2021/06/02 13:52:28;;;;;;;41.83;16.20;;;;;;;;;;1766501;75;28479;-51
2021/06/02 13:54:57;;;;;;;46.77;14.20;;;;;;;;;;1718882;81;21093;-48
2021/06/02 13:57:25;;;;;;;43.38;16.15;;;;;;;;;;1815384;76;21104;-49
2021/06/02 13:59:54;;;;;;;40.52;14.80;;;;;;;;;;1818432;78;21088;-50
2021/06/02 14:02:24;;;;;;;39.88;14.60;;;;;;;;;;1815083;78;21060;-48
2021/06/02 14:04:52;;;;;;;34.92;14.65;;;;;;;;;;1818394;78;21044;-47
2021/06/02 14:09:07;;;;;;;30.65;12.90;;;;;;;;;;1772825;73;22735;-49
2021/06/02 14:11:35;;;;;;;32.30;11.40;;;;;;;;;;1747846;82;21158;-49
2021/06/02 14:14:03;;;;;;;34.35;11.45;;;;;;;;;;1744436;82;21165;-48
2021/06/02 14:16:31;;;;;;;27.60;11.25;;;;;;;;;;1747676;81;21158;-50
2021/06/02 14:18:59;;;;;;;24.15;8.73;;;;;;;;;;1747489;82;21115;-49
2021/06/02 14:21:27;;;;;;;21.82;8.73;;;;;;;;;;1749350;80;21121;-49
2021/06/02 14:23:55;;;;;;;21.45;8.13;;;;;;;;;;1734527;79;21188;-58
2021/06/02 14:26:23;;;;;;;20.37;8.05;;;;;;;;;;1740325;80;21115;-58
2021/06/02 14:28:51;;;;;;;14.80;6.35;;;;;;;;;;1779732;80;21155;-51
2021/06/02 14:32:13;;;;;;;17.75;6.95;;;;;;;;;;1838408;77;22227;-56
2021/06/02 14:34:41;;;;;;;29.02;7.47;;;;;;;;;;1811978;76;21071;-58
2021/06/02 14:37:16;;;;;;;16.07;6.45;;;;;;;;;;1862478;76;21376;-65
2021/06/02 14:39:40;;;;;;;17.80;5.22;;;;;;;;;;1865061;75;22588;-54
2021/06/02 14:42:08;;;;;;;12.75;4.40;;;;;;;;;;1873632;76;21068;-56
2021/06/02 14:44:36;;;;;;;22.32;9.90;;;;;;;;;;1873164;76;21114;-55
2021/06/02 14:47:04;;;;;;;16.10;5.85;;;;;;;;;;1862476;76;60160;-61
2021/06/02 14:49:32;;;;;;;15.63;6.22;;;;;;;;;;1834119;78;21218;-55
2021/06/02 14:52:00;;;;;;;11.03;4.75;;;;;;;;;;1830901;78;21217;-58
2021/06/02 14:54:28;;;;;;;26.17;8.08;;;;;;;;;;1834029;78;21112;-61
2021/06/02 14:56:56;;;;;;;29.12;10.18;;;;;;;;;;1833124;78;21056;-60
2021/06/02 14:59:24;;;;;;;22.67;7.42;;;;;;;;;;1829941;78;21525;-55
2021/06/02 15:01:52;;;;;;;23.22;8.18;;;;;;;;;;1833914;78;21135;-55
2021/06/02 15:04:20;;;;;;;17.37;6.65;;;;;;;;;;1821595;78;21075;-51
2021/06/02 15:06:47;;;;;;;18.40;7.10;;;;;;;;;;1829312;78;21092;-55
2021/06/02 15:09:15;;;;;;;29.92;11.93;;;;;;;;;;1833452;78;21147;-53
2021/06/02 15:11:47;;;;;;;66.33;24.75;;;;;;;;;;1829724;78;21139;-53
2021/06/02 15:16:21;;;;;;;42.03;17.37;;;;;;;;;;1940570;69;22714;-58
2021/06/02 15:18:50;;;;;;;26.42;9.88;;;;;;;;;;1906320;74;21089;-61
2021/06/02 15:31:06;;;;;;;21.55;15.38;;;28.10;47.30;;;;;;1823260;71;64242;-49
2021/06/02 15:33:35;;;;;;;14.40;7.42;;;27.90;45.80;;;;;;1810513;79;21053;-49
2021/06/02 15:36:05;;;;;;;12.98;5.75;;;27.70;50.90;;;;;;1823177;79;21183;-49
2021/06/02 15:38:34;;;;;;;10.78;4.50;;;27.60;50.30;;;;;;1817100;78;21051;-58
2021/06/02 15:41:03;;;;;;;5.28;2.83;;;27.50;49.70;;;;;;1808892;79;21052;-49
2021/06/02 15:43:38;;;;;;;9.60;3.40;;;27.40;49.50;;;;;;1826400;76;21053;-48
2021/06/02 15:46:07;;;;;;;6.50;2.30;;;27.20;49.40;;;;;;1826319;77;21130;-51
2021/06/02 15:48:39;;;;;;;9.75;2.50;;;27.10;49.30;;;;;;1831257;78;21080;-49
2021/06/02 15:51:09;;;;;;;3.92;1.70;;;27.10;49.20;;;;;;1830877;78;21177;-53
2021/06/02 15:53:39;;;;;;;5.62;2.52;;;27.00;49.10;;;;;;1830624;78;21087;-56
2021/06/02 15:56:09;;;;;;;7.12;2.80;;;26.90;48.80;;;;;;1831178;78;21158;-54
2021/06/02 15:58:40;;;;;;;6.08;2.25;;;26.80;48.70;;;;;;1831164;78;21119;-52
2021/06/02 16:01:10;;;;;;;6.00;2.47;;;26.80;48.90;;;;;;1831265;78;21131;-54
2021/06/02 16:03:40;;;;;;;6.60;2.15;;;26.70;49.20;;;;;;1831052;78;21107;-51
2021/06/02 16:06:09;;;;;;;9.35;2.45;;;26.70;49.40;;;;;;1830785;78;21205;-55
2021/06/02 16:08:39;;;;;;;5.80;2.20;;;26.70;49.80;;;;;;1831242;78;21123;-56
2021/06/02 16:11:08;;;;;;;4.83;2.37;;;26.60;50.00;;;;;;1831169;78;21107;-55
2021/06/02 16:13:38;;;;;;;11.08;2.58;;;26.60;50.10;;;;;;1830949;78;21059;-49
2021/06/02 16:16:08;;;;;;;4.35;2.90;;;26.60;50.10;;;;;;1831181;78;21060;-55
2021/06/02 16:18:37;;;;;;;6.25;2.33;;;26.60;50.10;;;;;;1830912;78;21143;-56
2021/06/02 16:21:07;;;;;;;4.05;1.70;;;26.60;50.60;;;;;;1831020;78;21071;-55
2021/06/02 16:23:36;;;;;;;8.55;2.58;;;26.50;50.50;;;;;;1830981;78;21048;-55
2021/06/02 16:26:06;;;;;;;6.05;1.95;;;26.50;50.60;;;;;;1831065;78;21114;-56
2021/06/02 16:28:36;;;;;;;4.50;1.80;;;26.50;50.60;;;;;;1831094;78;21102;-58
2021/06/02 16:31:07;;;;;;;3.55;1.50;;;26.40;50.60;;;;;;1828703;78;21107;-55
2021/06/02 16:33:40;;;;;;;9.68;3.02;;;26.40;50.50;;;;;;1827951;78;21072;-50
2021/06/02 16:36:11;;;;;;;4.58;1.75;;;26.40;50.50;;;;;;1828191;78;21270;-53
2021/06/02 16:38:41;;;;;;;4.22;1.45;;;26.40;50.70;;;;;;1835497;77;21148;-55
2021/06/02 16:41:10;;;;;;;4.55;1.92;;;26.40;50.50;;;;;;1843633;78;21105;-54
2021/06/02 16:43:40;;;;;;;5.10;2.00;;;26.40;51.00;;;;;;1843205;78;21054;-59
2021/06/02 16:46:09;;;;;;;3.92;1.65;;;26.30;51.10;;;;;;1843405;77;21077;-52
2021/06/02 16:48:38;;;;;;;5.08;1.90;;;26.30;51.00;;;;;;1843220;78;21083;-55
2021/06/02 16:51:13;;;;;;;2.58;2.20;;;26.30;51.30;;;;;;1843333;77;21223;-57
2021/06/02 16:53:43;;;;;;;3.12;1.42;;;26.20;51.80;;;;;;1842450;78;21062;-54
2021/06/02 16:56:14;;;;;;;3.72;2.10;;;26.20;51.80;;;;;;1843362;78;21030;-55
2021/06/02 16:58:44;;;;;;;3.85;1.77;;;26.20;52.00;;;;;;1843291;78;21545;-55
2021/06/02 17:01:14;;;;;;;2.92;1.57;;;26.20;52.20;;;;;;1843358;78;21018;-56
2021/06/02 17:03:43;;;;;;;4.20;1.92;;;26.20;52.20;;;;;;1843523;78;21147;-55
2021/06/02 17:06:14;;;;;;;2.77;1.57;;;26.20;52.40;;;;;;1843327;78;21046;-51
2021/06/02 17:08:44;;;;;;;3.15;1.45;;;26.10;52.40;;;;;;1843133;78;21136;-55
2021/06/02 17:11:16;;;;;;;6.25;2.47;;;26.10;52.60;;;;;;1843406;77;21026;-62
2021/06/02 17:13:46;;;;;;;4.53;1.50;;;26.10;52.70;;;;;;1843439;78;21190;-58
2021/06/02 17:16:17;;;;;;;5.03;1.60;;;26.10;52.90;;;;;;1843437;78;21086;-59
2021/06/02 17:18:51;;;;;;;4.28;1.15;;;26.10;53.10;;;;;;1842937;77;21132;-55
2021/06/02 17:21:23;;;;;;;5.95;1.60;;;26.10;53.20;;;;;;1843092;78;21057;-54
2021/06/02 17:23:54;;;;;;;2.75;1.55;;;26.10;53.20;;;;;;1843257;78;21172;-55
2021/06/02 17:26:25;;;;;;;9.08;2.30;;;26.10;53.30;;;;;;1843563;78;21050;-54
2021/06/02 17:28:56;;;;;;;4.87;1.70;;;26.10;53.50;;;;;;1841752;78;21085;-56
2021/06/02 17:31:26;;;;;;;2.83;1.92;;;26.10;53.70;;;;;;1846634;77;21163;-50
2021/06/02 17:33:56;;;;;;;8.78;2.00;;;26.10;53.80;;;;;;1848961;77;21125;-52
2021/06/02 17:36:25;;;;;;;2.95;1.60;;;26.10;54.50;;;;;;1849471;77;21057;-50
2021/06/02 17:38:55;;;;;;;6.17;2.00;;;26.10;54.00;;;;;;1843176;77;21071;-57
2021/06/02 17:41:25;;;;;;;5.75;2.22;;;26.10;54.00;;;;;;1838596;78;21136;-58
2021/06/02 17:43:55;;;;;;;3.58;1.80;;;26.10;54.00;;;;;;1838584;78;21153;-57
2021/06/02 17:46:25;;;;;;;2.47;1.60;;;26.10;54.00;;;;;;1838713;77;21055;-53
2021/06/02 17:48:55;;;;;;;3.27;1.50;;;26.10;54.10;;;;;;1838618;78;21102;-54
2021/06/02 17:51:26;;;;;;;4.03;1.87;;;26.10;54.00;;;;;;1838564;78;21136;-56
2021/06/02 17:53:56;;;;;;;4.03;1.80;;;26.10;53.90;;;;;;1838447;78;21062;-56
2021/06/02 17:56:27;;;;;;;5.75;1.67;;;26.10;53.70;;;;;;1838687;78;21165;-54
2021/06/02 17:58:58;;;;;;;6.08;1.80;;;26.10;53.00;;;;;;1838696;78;21063;-56
2021/06/02 18:01:27;;;;;;;5.83;1.52;;;26.10;52.30;;;;;;1838701;78;21133;-59
2021/06/02 18:03:58;;;;;;;3.12;1.60;;;26.10;51.90;;;;;;1838677;77;21055;-55
2021/06/02 18:06:29;;;;;;;4.20;1.82;;;26.00;51.60;;;;;;1838694;77;21183;-59
2021/06/02 18:09:00;;;;;;;8.30;1.95;;;26.00;51.50;;;;;;1838464;78;21067;-59
2021/06/02 18:11:30;;;;;;;6.62;1.70;;;26.00;51.60;;;;;;1838532;78;21377;-55
2021/06/02 18:13:59;;;;;;;7.28;1.87;;;25.90;51.70;;;;;;1838656;78;21054;-56
2021/06/02 18:16:30;;;;;;;4.30;2.45;;;25.90;52.00;;;;;;1838749;77;21144;-57
2021/06/02 18:19:04;;;;;;;3.83;1.90;;;25.90;52.30;;;;;;1838599;77;21160;-55
2021/06/02 18:21:36;;;;;;;6.33;1.70;;;25.90;52.80;;;;;;1838624;77;21059;-55
2021/06/02 18:24:07;;;;;;;3.12;1.95;;;25.90;53.00;;;;;;1838790;78;21039;-52
2021/06/02 18:26:39;;;;;;;4.83;2.17;;;25.80;53.00;;;;;;1838577;77;21141;-57
2021/06/02 18:29:09;;;;;;;3.22;2.00;;;25.80;53.00;;;;;;1838679;78;21122;-60
2021/06/02 18:31:40;;;;;;;4.28;2.08;;;25.80;53.20;;;;;;1836796;77;21091;-58
2021/06/02 18:34:11;;;;;;;4.10;1.75;;;25.80;53.30;;;;;;1835027;78;21111;-52
2021/06/02 18:36:40;;;;;;;4.28;1.75;;;25.80;53.50;;;;;;1835120;78;21139;-54
2021/06/02 18:39:10;;;;;;;4.35;1.92;;;25.80;53.60;;;;;;1829910;78;21143;-60
2021/06/02 18:41:41;;;;;;;4.55;1.40;;;25.80;53.70;;;;;;1827596;78;21107;-54
2021/06/02 18:44:11;;;;;;;4.42;1.90;;;25.80;53.60;;;;;;1827573;78;22197;-55
2021/06/02 18:46:41;;;;;;;4.67;1.77;;;25.80;53.50;;;;;;1827476;78;21088;-57
2021/06/02 18:49:12;;;;;;;3.83;1.70;;;25.80;53.50;;;;;;1827574;78;21123;-57
2021/06/02 18:51:43;;;;;;;4.80;2.17;;;25.80;53.60;;;;;;1827619;78;21496;-54
2021/06/02 18:54:13;;;;;;;4.90;1.75;;;25.80;53.40;;;;;;1827394;78;21544;-49
2021/06/02 18:56:45;;;;;;;3.08;1.95;;;25.90;53.80;;;;;;1827293;78;21137;-53
2021/06/02 18:59:15;;;;;;;4.85;1.67;;;25.80;53.80;;;;;;1827439;78;21119;-59
2021/06/02 19:01:45;;;;;;;5.00;1.85;;;25.90;53.80;;;;;;1827436;78;21116;-53
2021/06/02 19:04:17;;;;;;;3.05;2.20;;;25.80;53.70;;;;;;1827297;78;21068;-53
2021/06/02 19:06:45;;;;;;;3.17;2.00;;;25.90;53.80;;;;;;1827435;78;21182;-54
2021/06/02 19:09:16;;;;;;;4.28;1.90;;;25.90;53.80;;;;;;1827444;78;21290;-54
2021/06/02 19:11:48;;;;;;;2.15;1.60;;;25.90;53.70;;;;;;1827623;78;21530;-51
2021/06/02 19:14:21;;;;;;;5.60;1.92;;;25.90;53.50;;;;;;1825008;78;21572;-52
2021/06/02 19:16:51;;;;;;;3.65;2.00;;;25.90;53.50;;;;;;1827568;78;21108;-59
2021/06/02 19:19:20;;;;;;;1.80;1.67;;;25.90;53.40;;;;;;1827443;78;21092;-52
2021/06/02 19:21:49;;;;;;;2.65;1.70;;;25.90;53.50;;;;;;1827431;78;21177;-56
2021/06/02 19:24:19;;;;;;;5.60;2.20;;;25.90;53.50;;;;;;1827596;78;21123;-53
2021/06/02 19:26:48;;;;;;;2.67;1.57;;;25.90;53.40;;;;;;1827609;78;21126;-53
2021/06/02 19:29:18;;;;;;;3.80;1.82;;;25.90;53.20;;;;;;1827582;78;21158;-56
2021/06/02 19:31:47;;;;;;;3.20;1.85;;;25.90;53.10;;;;;;1827424;78;21205;-47
2021/06/02 19:34:17;;;;;;;6.00;1.90;;;25.90;53.20;;;;;;1827405;78;21137;-48
2021/06/02 19:36:47;;;;;;;3.52;1.87;;;25.90;53.40;;;;;;1827508;78;21056;-55
2021/06/02 19:39:16;;;;;;;3.05;1.70;;;25.90;53.40;;;;;;1838893;78;21164;-47
2021/06/02 19:41:46;;;;;;;5.30;1.70;;;25.90;53.60;;;;;;1843267;78;21119;-57
2021/06/02 19:44:15;;;;;;;2.20;1.82;;;25.90;53.60;;;;;;1843445;78;21083;-50
2021/06/02 19:46:44;;;;;;;3.65;1.60;;;25.90;53.60;;;;;;1843255;78;21179;-50
2021/06/02 19:49:13;;;;;;;3.52;1.60;;;25.90;53.60;;;;;;1843207;78;21105;-55
2021/06/02 19:51:43;;;;;;;3.77;1.57;;;25.90;53.60;;;;;;1843315;78;21098;-50
2021/06/02 19:54:13;;;;;;;5.33;2.10;;;25.90;53.50;;;;;;1839446;77;21047;-57
2021/06/02 19:56:42;;;;;;;2.77;1.55;;;25.80;53.50;;;;;;1834959;77;21051;-47
2021/06/02 19:59:12;;;;;;;4.10;1.82;;;25.90;53.70;;;;;;1834987;77;21102;-48
2021/06/02 20:01:42;;;;;;;2.40;1.57;;;25.90;53.80;;;;;;1835105;78;21091;-49
2021/06/02 20:04:15;;;;;;;3.52;1.80;;;25.90;53.90;;;;;;1834939;77;21220;-53
2021/06/02 20:06:47;;;;;;;3.50;1.52;;;25.90;54.00;;;;;;1835208;77;21144;-54
2021/06/02 20:09:22;;;;;;;2.22;1.60;;;25.90;54.10;;;;;;1834972;78;21106;-55
2021/06/02 20:12:01;;;;;;;5.95;1.70;;;25.90;54.20;;;;;;1834664;78;21550;-57
2021/06/02 20:14:27;;;;;;;5.42;1.42;;;25.90;54.30;;;;;;1834025;78;21074;-50
2021/06/02 20:16:56;;;;;;;3.75;1.70;;;25.90;54.30;;;;;;1835084;77;21195;-51
2021/06/02 20:19:26;;;;;;;2.75;1.80;;;25.90;54.50;;;;;;1835174;78;21059;-51
2021/06/02 20:21:55;;;;;;;3.00;2.37;;;26.00;54.60;;;;;;1835135;78;21172;-58
2021/06/02 20:24:26;;;;;;;3.45;1.40;;;26.00;54.60;;;;;;1835080;78;21470;-58
2021/06/02 20:26:57;;;;;;;6.03;2.12;;;26.00;54.70;;;;;;1835142;78;21149;-60
2021/06/02 20:34:48;;;;;;;2.95;1.30;;;26.00;55.00;;;;;;1838673;78;21098;-58
2021/06/02 20:37:20;;;;;;;3.17;1.70;;;26.00;55.00;;;;;;1838975;78;21145;-58
2021/06/02 20:39:49;;;;;;;2.02;1.55;;;26.00;55.10;;;;;;1848770;77;21593;-55
2021/06/02 20:42:19;;;;;;;3.20;1.87;;;26.10;55.20;;;;;;1849616;77;21057;-56
2021/06/02 20:44:49;;;;;;;2.55;1.47;;;26.10;55.30;;;;;;1849315;77;21057;-54
2021/06/02 20:47:20;;;;;;;3.40;1.50;;;26.10;55.30;;;;;;1849441;77;21140;-56
2021/06/02 20:49:51;;;;;;;3.62;1.57;;;26.10;55.30;;;;;;1849577;77;21148;-54
2021/06/02 20:52:20;;;;;;;2.35;1.50;;;26.10;55.40;;;;;;1849585;77;21046;-56
2021/06/02 20:54:50;;;;;;;3.15;1.30;;;26.10;55.40;;;;;;1849395;77;21057;-55
2021/06/02 20:57:19;;;;;;;3.30;1.50;;;26.10;55.50;;;;;;1849660;77;21101;-57
2021/06/02 20:59:49;;;;;;;2.70;1.40;;;26.10;55.50;;;;;;1849428;77;21157;-56
2021/06/02 21:02:18;;;;;;;1.50;1.10;;;26.10;55.60;;;;;;1849808;77;21135;-57
2021/06/02 21:04:48;;;;;;;2.65;1.40;;;26.10;55.60;;;;;;1849584;77;21052;-56
2021/06/02 21:07:19;;;;;;;2.05;1.37;;;26.10;55.70;;;;;;1849541;77;21073;-59
2021/06/02 21:09:49;;;;;;;3.67;1.95;;;26.20;55.80;;;;;;1820322;77;21622;-58
2021/06/02 21:12:19;;;;;;;4.00;1.55;;;26.20;55.80;;;;;;1817371;79;21100;-61
2021/06/02 21:14:48;;;;;;;2.05;1.40;;;26.20;55.80;;;;;;1817402;79;21110;-56
2021/06/02 21:17:18;;;;;;;6.58;1.60;;;26.20;55.80;;;;;;1817816;79;21221;-59
2021/06/02 21:19:48;;;;;;;3.08;1.37;;;26.20;55.30;;;;;;1816949;79;21143;-59
2021/06/02 21:22:17;;;;;;;2.85;1.30;;;26.20;55.20;;;;;;1816957;79;21122;-59
2021/06/02 21:24:47;;;;;;;3.60;1.45;;;26.30;55.20;;;;;;1817346;79;21146;-59
2021/06/02 21:27:16;;;;;;;3.50;1.70;;;26.30;55.10;;;;;;1817384;79;21221;-59
2021/06/02 21:29:47;;;;;;;3.83;1.30;;;26.20;55.10;;;;;;1817444;79;21076;-59
2021/06/02 21:32:16;;;;;;;4.17;1.45;;;26.20;55.10;;;;;;1817749;79;21134;-59
2021/06/02 21:34:46;;;;;;;2.33;1.40;;;26.20;55.00;;;;;;1817714;79;21173;-59
2021/06/02 21:37:16;;;;;;;6.08;1.75;;;26.20;55.00;;;;;;1817769;79;21161;-59
2021/06/02 21:39:45;;;;;;;4.15;1.32;;;26.20;55.10;;;;;;1817759;79;21217;-59
2021/06/02 21:42:15;;;;;;;3.52;1.50;;;26.20;55.10;;;;;;1817748;79;21071;-59
2021/06/02 21:44:45;;;;;;;3.47;1.50;;;26.10;55.00;;;;;;1817800;79;21122;-59
2021/06/02 21:47:15;;;;;;;3.33;1.52;;;26.10;55.00;;;;;;1817804;79;21051;-59
2021/06/02 21:49:45;;;;;;;5.37;1.85;;;26.10;55.00;;;;;;1817766;79;21099;-59
2021/06/02 21:52:15;;;;;;;3.00;1.25;;;26.10;54.90;;;;;;1817913;78;21210;-59
2021/06/02 21:54:44;;;;;;;2.75;1.40;;;26.10;55.00;;;;;;1817733;79;21047;-59
2021/06/02 21:57:13;;;;;;;2.37;1.37;;;26.10;55.00;;;;;;1817755;79;21024;-59
2021/06/02 21:59:43;;;;;;;2.05;1.40;;;26.10;54.90;;;;;;1817843;79;21195;-59
2021/06/02 22:02:15;;;;;;;3.87;1.35;;;26.00;54.90;;;;;;1817829;79;21158;-60
2021/06/02 22:04:44;;;;;;;1.57;1.20;;;26.00;54.90;;;;;;1817755;79;21158;-59
2021/06/02 22:07:14;;;;;;;2.08;1.30;;;26.00;54.90;;;;;;1817846;78;21088;-59
2021/06/02 22:09:43;;;;;;;1.47;1.20;;;26.00;54.90;;;;;;1817601;79;21168;-59
2021/06/02 22:12:13;;;;;;;3.80;1.62;;;26.00;54.90;;;;;;1817917;79;21052;-59
2021/06/02 22:14:42;;;;;;;1.62;1.20;;;26.00;54.90;;;;;;1817759;79;21146;-60
2021/06/02 22:17:13;;;;;;;3.05;1.40;;;26.00;54.90;;;;;;1817836;79;21099;-59
2021/06/02 22:19:42;;;;;;;2.72;1.30;;;25.90;54.80;;;;;;1817740;79;21099;-59
2021/06/02 22:22:12;;;;;;;1.87;1.20;;;25.90;55.00;;;;;;1817854;79;21155;-59
2021/06/02 22:24:41;;;;;;;3.37;1.35;;;25.90;54.90;;;;;;1817618;79;21102;-59
2021/06/02 22:27:10;;;;;;;3.10;1.57;;;25.90;54.90;;;;;;1817919;79;21071;-59
2021/06/02 22:29:40;;;;;;;1.72;0.95;;;25.90;55.00;;;;;;1817961;79;21111;-59
2021/06/02 22:32:10;;;;;;;3.60;1.35;;;25.90;55.00;;;;;;1817684;79;21070;-59
2021/06/02 22:34:39;;;;;;;4.03;1.20;;;25.90;55.10;;;;;;1819896;79;21132;-59
2021/06/02 22:37:09;;;;;;;3.40;1.20;;;25.90;55.10;;;;;;1821048;79;21091;-59
2021/06/02 22:39:38;;;;;;;2.10;1.17;;;25.80;55.10;;;;;;1820862;79;21377;-59
2021/06/02 22:42:08;;;;;;;2.42;1.30;;;25.80;55.00;;;;;;1820931;79;21091;-59
2021/06/02 22:44:37;;;;;;;2.58;1.40;;;25.80;55.00;;;;;;1820919;79;21179;-59
2021/06/02 22:47:07;;;;;;;2.95;1.30;;;25.80;55.00;;;;;;1820989;79;21055;-59
2021/06/02 22:49:36;;;;;;;1.95;1.20;;;25.80;55.00;;;;;;1821094;79;21185;-59
2021/06/02 22:52:06;;;;;;;1.57;1.27;;;25.70;55.00;;;;;;1820799;79;21146;-59
2021/06/02 22:54:36;;;;;;;3.80;1.17;;;25.70;55.00;;;;;;1820935;79;21158;-59
2021/06/02 22:57:06;;;;;;;2.15;1.00;;;25.70;55.10;;;;;;1820935;79;21161;-59
2021/06/02 22:59:35;;;;;;;2.30;1.22;;;25.70;55.10;;;;;;1820818;79;21085;-59
2021/06/02 23:02:05;;;;;;;2.75;1.40;;;25.70;55.20;;;;;;1821155;79;21095;-59
2021/06/02 23:04:34;;;;;;;3.05;1.30;;;25.70;55.20;;;;;;1820975;79;21059;-59
2021/06/02 23:07:05;;;;;;;1.75;1.10;;;25.70;55.30;;;;;;1820844;79;21071;-59
2021/06/02 23:09:34;;;;;;;3.58;1.30;;;25.70;55.20;;;;;;1820766;79;21149;-59
2021/06/02 23:12:04;;;;;;;2.87;1.40;;;25.70;55.20;;;;;;1820982;79;21111;-59
2021/06/02 23:14:33;;;;;;;1.67;0.90;;;25.70;55.20;;;;;;1820747;79;21123;-59
2021/06/02 23:17:03;;;;;;;2.08;1.12;;;25.60;55.30;;;;;;1820956;79;21208;-59
2021/06/02 23:19:33;;;;;;;2.40;1.12;;;25.60;55.30;;;;;;1820724;79;21212;-59
2021/06/02 23:22:02;;;;;;;3.02;1.47;;;25.60;55.40;;;;;;1820848;79;21090;-59
2021/06/02 23:24:32;;;;;;;3.35;1.52;;;25.60;55.30;;;;;;1820880;79;21091;-59
2021/06/02 23:27:02;;;;;;;2.08;1.20;;;25.60;55.30;;;;;;1820992;79;21138;-59
2021/06/02 23:29:31;;;;;;;2.50;1.17;;;25.60;55.30;;;;;;1820938;79;21087;-59
2021/06/02 23:32:01;;;;;;;1.98;1.65;;;25.60;55.40;;;;;;1820940;79;21023;-59
2021/06/02 23:34:31;;;;;;;1.92;1.25;;;25.50;55.30;;;;;;1817372;79;21083;-59
2021/06/02 23:37:00;;;;;;;3.98;1.50;;;25.60;55.30;;;;;;1811769;79;21172;-59
2021/06/02 23:39:30;;;;;;;2.60;1.57;;;25.50;55.40;;;;;;1811859;79;21151;-59
2021/06/02 23:41:59;;;;;;;1.67;1.07;;;25.50;55.40;;;;;;1811742;79;21136;-59
2021/06/02 23:44:29;;;;;;;1.65;1.20;;;25.50;55.40;;;;;;1811733;79;21207;-59
2021/06/02 23:46:58;;;;;;;1.45;1.10;;;25.50;55.40;;;;;;1811945;79;21079;-59
2021/06/02 23:49:28;;;;;;;2.22;1.07;;;25.50;55.40;;;;;;1811603;79;21084;-59
2021/06/02 23:52:00;;;;;;;2.00;1.32;;;25.50;55.40;;;;;;1811927;79;21091;-59
2021/06/02 23:54:29;;;;;;;1.55;0.95;;;25.50;55.50;;;;;;1811624;79;21044;-59
2021/06/02 23:56:59;;;;;;;2.50;1.10;;;25.50;55.50;;;;;;1812029;79;21091;-59
2021/06/02 23:59:28;;;;;;;2.92;1.55;;;25.50;55.50;;;;;;1811993;79;21137;-59
